createdAt,value
2022-11-06T00:01:16.006Z,4.80
2022-11-06T00:03:47.925Z,4.80
2022-11-06T00:06:39.973Z,4.80
2022-11-06T00:09:12.891Z,4.80
2022-11-06T00:11:45.013Z,4.70
2022-11-06T00:14:17.161Z,4.80
2022-11-06T00:16:49.234Z,4.70
2022-11-06T00:19:20.969Z,4.70
2022-11-06T00:21:55.184Z,4.70
2022-11-06T00:24:26.997Z,4.70
2022-11-06T00:26:58.955Z,4.70
2022-11-06T00:29:30.695Z,4.70
2022-11-06T00:32:02.416Z,4.70
2022-11-06T00:34:34.121Z,4.70
2022-11-06T00:37:08.422Z,4.70
2022-11-06T00:39:40.255Z,4.70
2022-11-06T00:42:14.081Z,4.70
2022-11-06T00:44:45.825Z,4.60
2022-11-06T00:47:17.541Z,4.60
2022-11-06T00:49:49.268Z,4.60
2022-11-06T00:52:20.999Z,4.70
2022-11-06T00:54:52.761Z,4.60
2022-11-06T00:57:24.487Z,4.60
2022-11-06T00:59:56.274Z,4.60
2022-11-06T01:02:30.440Z,4.60
2022-11-06T01:05:05.057Z,4.60
2022-11-06T01:07:36.839Z,4.60
2022-11-06T01:10:08.808Z,4.60
2022-11-06T01:12:42.891Z,4.60
2022-11-06T01:15:14.621Z,4.60
2022-11-06T01:17:46.362Z,4.60
2022-11-06T01:20:20.264Z,4.60
2022-11-06T01:22:54.434Z,4.60
2022-11-06T01:25:26.134Z,4.50
2022-11-06T01:27:57.816Z,4.50
2022-11-06T01:30:33.354Z,4.50
2022-11-06T01:33:05.068Z,4.50
2022-11-06T01:35:43.988Z,4.40
2022-11-06T01:38:16.058Z,4.40
2022-11-06T01:40:48.388Z,4.40
2022-11-06T01:43:22.169Z,4.40
2022-11-06T01:45:55.475Z,4.40
2022-11-06T01:48:28.026Z,4.40
2022-11-06T01:50:59.838Z,4.40
2022-11-06T01:53:32.001Z,4.30
2022-11-06T01:56:07.990Z,4.30
2022-11-06T01:58:41.523Z,4.30
2022-11-06T02:01:13.683Z,4.30
2022-11-06T02:03:50.646Z,4.30
2022-11-06T02:06:22.577Z,4.20
2022-11-06T02:08:54.943Z,4.20
2022-11-06T02:11:26.715Z,4.20
2022-11-06T02:14:17.213Z,4.20
2022-11-06T02:16:49.017Z,4.20
2022-11-06T02:19:36.863Z,4.20
2022-11-06T02:22:20.863Z,4.20
2022-11-06T02:24:52.561Z,4.10
2022-11-06T02:27:25.225Z,4.20
2022-11-06T02:30:03.156Z,4.20
2022-11-06T02:32:44.041Z,4.10
2022-11-06T02:35:24.504Z,4.10
2022-11-06T02:38:02.472Z,4.10
2022-11-06T02:40:38.083Z,4.10
2022-11-06T02:43:10.572Z,4.10
2022-11-06T02:45:55.881Z,4.10
2022-11-06T02:48:30.000Z,4.10
2022-11-06T02:51:02.884Z,4.10
2022-11-06T02:53:36.525Z,4.10
2022-11-06T02:56:16.594Z,4.10
2022-11-06T02:58:57.928Z,4.10
2022-11-06T03:01:35.165Z,4.10
2022-11-06T03:04:12.441Z,4.10
2022-11-06T03:06:46.853Z,4.10
2022-11-06T03:09:19.903Z,4.10
2022-11-06T03:11:57.593Z,4.20
2022-11-06T03:14:35.103Z,4.20
2022-11-06T03:17:17.651Z,4.20
2022-11-06T03:19:56.246Z,4.20
2022-11-06T03:22:40.338Z,4.20
2022-11-06T03:25:17.313Z,4.20
2022-11-06T03:28:24.731Z,4.20
2022-11-06T03:31:01.201Z,4.10
2022-11-06T03:33:36.272Z,4.10
2022-11-06T03:36:34.262Z,4.10
2022-11-06T03:39:07.286Z,4.10
2022-11-06T03:41:42.857Z,4.10
2022-11-06T03:44:15.841Z,4.10
2022-11-06T03:46:52.619Z,4.10
2022-11-06T03:49:30.513Z,4.10
2022-11-06T03:52:24.526Z,4.10
2022-11-06T03:54:59.259Z,4.00
2022-11-06T03:57:38.906Z,4.00
2022-11-06T04:00:11.251Z,4.00
2022-11-06T04:02:45.430Z,4.00
2022-11-06T04:05:21.977Z,3.90
2022-11-06T04:08:14.328Z,3.90
2022-11-06T04:11:07.608Z,3.90
2022-11-06T04:13:58.987Z,3.80
2022-11-06T04:16:35.310Z,3.80
2022-11-06T04:19:13.155Z,3.80
2022-11-06T04:21:50.978Z,3.80
2022-11-06T04:24:47.350Z,3.80
2022-11-06T04:27:31.245Z,3.80
2022-11-06T04:30:13.791Z,3.70
2022-11-06T04:32:48.838Z,3.70
2022-11-06T04:35:23.614Z,3.60
2022-11-06T04:38:21.841Z,3.60
2022-11-06T04:40:55.952Z,3.60
2022-11-06T04:43:37.038Z,3.50
2022-11-06T04:46:11.190Z,3.50
2022-11-06T04:48:46.868Z,3.40
2022-11-06T04:51:20.332Z,3.40
2022-11-06T04:53:52.662Z,3.30
2022-11-06T04:56:29.685Z,3.30
2022-11-06T04:59:03.465Z,3.30
2022-11-06T05:01:35.325Z,3.30
2022-11-06T05:04:07.215Z,3.20
2022-11-06T05:06:38.903Z,3.20
2022-11-06T05:09:10.621Z,3.10
2022-11-06T05:11:42.312Z,3.10
2022-11-06T05:14:14.092Z,3.10
2022-11-06T05:16:48.375Z,3.10
2022-11-06T05:19:20.181Z,3.00
2022-11-06T05:22:10.512Z,3.10
2022-11-06T05:24:42.286Z,3.00
2022-11-06T05:27:13.989Z,3.00
2022-11-06T05:29:46.334Z,3.00
2022-11-06T05:32:18.072Z,3.00
2022-11-06T05:34:49.804Z,3.00
2022-11-06T05:37:21.518Z,3.00
2022-11-06T05:39:53.256Z,3.00
2022-11-06T05:42:27.075Z,2.90
2022-11-06T05:44:58.781Z,2.90
2022-11-06T05:47:30.471Z,2.90
2022-11-06T05:50:02.285Z,3.00
2022-11-06T05:52:34.642Z,3.00
2022-11-06T05:55:11.672Z,3.00
2022-11-06T05:57:46.042Z,3.10
2022-11-06T06:00:17.868Z,3.10
2022-11-06T06:02:49.685Z,3.20
2022-11-06T06:05:21.448Z,3.10
2022-11-06T06:07:53.135Z,3.20
2022-11-06T06:10:24.893Z,3.20
2022-11-06T06:12:58.710Z,3.20
2022-11-06T06:15:33.088Z,3.30
2022-11-06T06:18:05.396Z,3.40
2022-11-06T06:20:42.075Z,3.40
2022-11-06T06:23:13.795Z,3.70
2022-11-06T06:25:45.502Z,4.00
2022-11-06T06:28:17.344Z,4.40
2022-11-06T06:30:49.136Z,4.70
2022-11-06T06:33:20.865Z,4.90
2022-11-06T06:35:52.623Z,5.00
2022-11-06T06:38:26.741Z,5.30
2022-11-06T06:41:04.540Z,5.50
2022-11-06T06:43:36.257Z,5.80
2022-11-06T06:46:08.071Z,6.10
2022-11-06T06:48:39.860Z,6.10
2022-11-06T06:51:11.602Z,6.10
2022-11-06T06:53:43.338Z,6.00
2022-11-06T06:56:15.811Z,6.00
2022-11-06T06:58:47.805Z,6.00
2022-11-06T07:01:19.595Z,6.00
2022-11-06T07:03:51.353Z,6.00
2022-11-06T07:06:23.124Z,5.90
2022-11-06T07:08:55.507Z,5.80
2022-11-06T07:11:27.245Z,5.60
2022-11-06T07:13:58.949Z,5.40
2022-11-06T07:16:32.504Z,5.30
2022-11-06T07:19:04.222Z,5.10
2022-11-06T07:21:38.435Z,5.00
2022-11-06T07:24:10.232Z,4.90
2022-11-06T07:26:44.183Z,4.90
2022-11-06T07:29:15.905Z,4.90
2022-11-06T07:31:47.696Z,4.90
2022-11-06T07:34:19.388Z,4.90
2022-11-06T07:36:53.569Z,5.00
2022-11-06T07:39:25.312Z,5.00
2022-11-06T07:41:57.066Z,5.10
2022-11-06T07:44:30.989Z,5.10
2022-11-06T07:47:02.976Z,5.10
2022-11-06T07:49:34.670Z,5.20
2022-11-06T07:52:06.463Z,5.30
2022-11-06T07:54:38.167Z,5.30
2022-11-06T07:57:09.941Z,5.40
2022-11-06T07:59:42.605Z,5.50
2022-11-06T08:02:14.562Z,5.60
2022-11-06T08:04:46.306Z,5.70
2022-11-06T08:07:20.241Z,5.80
2022-11-06T08:09:52.024Z,5.80
2022-11-06T08:12:23.805Z,5.90
2022-11-06T08:14:55.495Z,5.90
2022-11-06T08:17:27.761Z,6.00
2022-11-06T08:19:59.480Z,6.10
2022-11-06T08:22:31.217Z,6.10
2022-11-06T08:25:02.951Z,6.20
2022-11-06T08:27:34.739Z,6.20
2022-11-06T08:30:09.390Z,6.30
2022-11-06T08:32:41.162Z,6.40
2022-11-06T08:35:12.919Z,6.50
2022-11-06T08:37:47.038Z,6.70
2022-11-06T08:40:20.653Z,6.80
2022-11-06T08:42:52.403Z,7.00
2022-11-06T08:45:24.101Z,7.10
2022-11-06T08:47:55.881Z,7.30
2022-11-06T08:50:27.588Z,7.40
2022-11-06T08:53:01.201Z,7.60
2022-11-06T08:55:33.790Z,7.70
2022-11-06T08:58:08.193Z,7.90
2022-11-06T09:00:39.967Z,8.00
2022-11-06T09:03:13.611Z,8.00
2022-11-06T09:05:48.017Z,8.10
2022-11-06T09:08:19.814Z,8.20
2022-11-06T09:10:57.224Z,8.30
2022-11-06T09:13:30.319Z,8.40
2022-11-06T09:16:02.221Z,8.40
2022-11-06T09:18:33.969Z,8.40
2022-11-06T09:21:06.802Z,8.50
2022-11-06T09:23:38.650Z,8.50
2022-11-06T09:26:15.145Z,8.50
2022-11-06T09:28:47.382Z,8.60
2022-11-06T09:31:20.923Z,8.60
2022-11-06T09:33:53.303Z,8.60
2022-11-06T09:36:25.143Z,8.60
2022-11-06T09:38:57.116Z,8.60
2022-11-06T09:42:01.355Z,8.60
2022-11-06T09:44:53.563Z,8.70
2022-11-06T09:47:28.433Z,8.80
2022-11-06T09:50:01.989Z,8.90
2022-11-06T09:52:42.193Z,9.00
2022-11-06T09:55:18.399Z,9.10
2022-11-06T09:58:01.354Z,9.20
2022-11-06T10:00:34.588Z,9.20
2022-11-06T10:03:12.487Z,9.30
2022-11-06T10:05:44.932Z,9.40
2022-11-06T10:08:19.869Z,9.40
2022-11-06T10:11:01.279Z,9.40
2022-11-06T10:13:32.976Z,9.50
2022-11-06T10:16:14.999Z,9.50
2022-11-06T10:18:56.145Z,9.60
2022-11-06T10:21:35.479Z,9.70
2022-11-06T10:24:16.230Z,9.80
2022-11-06T10:26:54.736Z,9.80
2022-11-06T10:29:44.760Z,9.90
2022-11-06T10:32:38.194Z,9.90
2022-11-06T10:35:19.400Z,10.00
2022-11-06T10:37:55.038Z,10.00
2022-11-06T10:40:32.668Z,10.00
2022-11-06T10:43:14.026Z,10.10
2022-11-06T10:45:49.797Z,10.10
2022-11-06T10:48:31.126Z,10.20
2022-11-06T10:51:27.800Z,10.30
2022-11-06T10:54:18.526Z,10.30
2022-11-06T10:56:53.255Z,10.30
2022-11-06T10:59:25.104Z,10.30
2022-11-06T11:01:57.140Z,10.40
2022-11-06T11:04:32.121Z,10.50
2022-11-06T11:07:18.755Z,10.50
2022-11-06T11:09:53.270Z,10.60
2022-11-06T11:12:31.258Z,10.60
2022-11-06T11:15:06.030Z,10.60
2022-11-06T11:17:37.870Z,10.70
2022-11-06T11:20:30.792Z,10.90
2022-11-06T11:23:06.844Z,11.30
2022-11-06T11:25:41.233Z,11.70
2022-11-06T11:28:20.910Z,11.80
2022-11-06T11:30:59.278Z,12.00
2022-11-06T11:33:31.101Z,12.10
2022-11-06T11:36:05.405Z,11.90
2022-11-06T11:38:39.007Z,11.70
2022-11-06T11:41:13.514Z,11.60
2022-11-06T11:43:55.843Z,11.50
2022-11-06T11:46:27.589Z,11.40
2022-11-06T11:48:59.860Z,11.50
2022-11-06T11:51:31.607Z,11.40
2022-11-06T11:54:12.766Z,11.40
2022-11-06T11:57:07.792Z,11.50
2022-11-06T11:59:39.642Z,11.50
2022-11-06T12:02:16.551Z,11.40
2022-11-06T12:04:52.471Z,11.40
2022-11-06T12:07:35.400Z,11.50
2022-11-06T12:10:33.538Z,11.70
2022-11-06T12:13:06.550Z,11.80
2022-11-06T12:15:38.299Z,12.40
2022-11-06T12:18:16.409Z,12.60
2022-11-06T12:21:08.347Z,12.50
2022-11-06T12:23:41.755Z,12.40
2022-11-06T12:26:19.566Z,12.20
2022-11-06T12:28:54.138Z,11.90
2022-11-06T12:31:31.689Z,11.70
2022-11-06T12:34:07.092Z,11.60
2022-11-06T12:36:42.181Z,11.40
2022-11-06T12:39:16.639Z,11.30
2022-11-06T12:41:50.135Z,11.20
2022-11-06T12:44:21.920Z,11.20
2022-11-06T12:47:08.100Z,11.10
2022-11-06T12:49:47.304Z,11.00
2022-11-06T12:52:36.619Z,11.00
2022-11-06T12:55:16.928Z,11.00
2022-11-06T12:58:06.980Z,11.00
2022-11-06T13:00:57.418Z,11.00
2022-11-06T13:03:35.387Z,11.00
2022-11-06T13:06:12.815Z,10.90
2022-11-06T13:09:00.325Z,10.80
2022-11-06T13:11:46.969Z,10.70
2022-11-06T13:14:37.343Z,10.70
2022-11-06T13:17:15.858Z,10.70
2022-11-06T13:20:08.906Z,10.60
2022-11-06T13:22:40.622Z,10.50
2022-11-06T13:25:34.025Z,10.50
2022-11-06T13:28:16.144Z,10.40
2022-11-06T13:30:50.466Z,10.30
2022-11-06T13:33:30.124Z,10.30
2022-11-06T13:36:02.508Z,10.30
2022-11-06T13:38:38.800Z,10.20
2022-11-06T13:41:16.778Z,10.30
2022-11-06T13:44:08.752Z,10.10
2022-11-06T13:46:40.705Z,10.10
2022-11-06T13:49:12.439Z,10.00
2022-11-06T13:51:49.298Z,10.00
2022-11-06T13:54:21.022Z,10.00
2022-11-06T13:57:08.612Z,9.90
2022-11-06T13:59:40.781Z,9.90
2022-11-06T14:02:25.188Z,9.90
2022-11-06T14:05:17.184Z,9.80
2022-11-06T14:07:49.969Z,9.80
2022-11-06T14:10:23.318Z,9.70
2022-11-06T14:12:55.054Z,9.70
2022-11-06T14:15:31.502Z,9.60
2022-11-06T14:18:03.722Z,9.60
2022-11-06T14:20:36.765Z,9.50
2022-11-06T14:23:27.166Z,9.50
2022-11-06T14:26:09.109Z,9.40
2022-11-06T14:28:41.847Z,9.30
2022-11-06T14:31:33.554Z,9.30
2022-11-06T14:34:32.129Z,9.20
2022-11-06T14:37:19.360Z,9.20
2022-11-06T14:39:51.036Z,9.00
2022-11-06T14:42:31.216Z,9.00
2022-11-06T14:45:16.443Z,8.90
2022-11-06T14:47:54.535Z,8.80
2022-11-06T14:50:28.758Z,8.80
2022-11-06T14:53:03.739Z,8.70
2022-11-06T14:55:43.341Z,8.70
2022-11-06T14:58:18.898Z,8.60
2022-11-06T15:00:59.036Z,8.50
2022-11-06T15:03:30.762Z,8.40
2022-11-06T15:06:08.226Z,8.40
2022-11-06T15:08:49.392Z,8.30
2022-11-06T15:11:24.206Z,8.20
2022-11-06T15:13:56.458Z,8.20
2022-11-06T15:16:32.845Z,8.10
2022-11-06T15:19:06.563Z,8.00
2022-11-06T15:22:00.334Z,7.90
2022-11-06T15:24:51.642Z,7.90
2022-11-06T15:27:29.274Z,7.80
2022-11-06T15:30:02.898Z,7.80
2022-11-06T15:32:38.186Z,7.70
2022-11-06T15:35:16.335Z,7.70
2022-11-06T15:37:52.896Z,7.70
2022-11-06T15:40:27.394Z,7.70
2022-11-06T15:43:05.876Z,7.60
2022-11-06T15:45:39.900Z,7.60
2022-11-06T15:48:21.818Z,7.60
2022-11-06T15:50:53.660Z,7.60
2022-11-06T15:53:27.644Z,7.50
2022-11-06T15:56:01.764Z,7.40
2022-11-06T15:58:34.836Z,7.40
2022-11-06T16:01:07.619Z,7.20
2022-11-06T16:03:51.009Z,7.20
2022-11-06T16:06:22.935Z,7.20
2022-11-06T16:08:55.525Z,7.10
2022-11-06T16:11:28.015Z,7.00
2022-11-06T16:14:02.426Z,7.00
2022-11-06T16:16:53.140Z,7.00
2022-11-06T16:19:24.859Z,7.00
2022-11-06T16:22:04.270Z,6.90
2022-11-06T16:24:41.589Z,6.90
2022-11-06T16:27:14.185Z,6.90
2022-11-06T16:29:47.375Z,6.80
2022-11-06T16:32:21.024Z,6.80
2022-11-06T16:34:55.281Z,6.70
2022-11-06T16:37:32.910Z,6.70
2022-11-06T16:40:08.282Z,6.70
2022-11-06T16:42:42.500Z,6.70
2022-11-06T16:45:21.462Z,6.70
2022-11-06T16:48:08.481Z,6.70
2022-11-06T16:50:48.464Z,6.70
2022-11-06T16:53:28.429Z,6.70
2022-11-06T16:56:09.061Z,6.70
2022-11-06T16:58:50.269Z,6.70
2022-11-06T17:01:24.781Z,6.60
2022-11-06T17:03:59.269Z,6.60
2022-11-06T17:06:32.407Z,6.60
2022-11-06T17:09:13.859Z,6.60
2022-11-06T17:11:45.588Z,6.60
2022-11-06T17:14:18.803Z,6.60
2022-11-06T17:16:52.287Z,6.60
2022-11-06T17:19:24.725Z,6.50
2022-11-06T17:21:58.007Z,6.50
2022-11-06T17:24:37.948Z,6.50
2022-11-06T17:27:09.906Z,6.40
2022-11-06T17:29:41.667Z,6.40
2022-11-06T17:32:15.809Z,6.40
2022-11-06T17:34:47.708Z,6.30
2022-11-06T17:37:22.083Z,6.30
2022-11-06T17:39:53.968Z,6.30
2022-11-06T17:42:25.746Z,6.30
2022-11-06T17:44:58.751Z,6.30
2022-11-06T17:47:30.487Z,6.30
2022-11-06T17:50:02.459Z,6.20
2022-11-06T17:52:34.365Z,6.20
2022-11-06T17:55:09.270Z,6.20
2022-11-06T17:57:43.465Z,6.10
2022-11-06T18:00:15.365Z,6.20
2022-11-06T18:03:00.806Z,6.10
2022-11-06T18:05:33.589Z,6.20
2022-11-06T18:08:05.351Z,6.20
2022-11-06T18:10:37.304Z,6.20
2022-11-06T18:13:09.037Z,6.20
2022-11-06T18:15:41.061Z,6.20
2022-11-06T18:18:15.675Z,6.20
2022-11-06T18:20:48.775Z,6.20
2022-11-06T18:23:23.500Z,6.20
2022-11-06T18:25:56.646Z,6.20
2022-11-06T18:28:28.379Z,6.30
2022-11-06T18:31:02.731Z,6.20
2022-11-06T18:33:35.048Z,6.20
2022-11-06T18:36:08.192Z,6.20
2022-11-06T18:38:40.945Z,6.20
2022-11-06T18:41:17.811Z,6.30
2022-11-06T18:43:49.598Z,6.30
2022-11-06T18:46:21.729Z,6.30
2022-11-06T18:48:54.875Z,6.30
2022-11-06T18:51:36.006Z,6.30
2022-11-06T18:54:10.522Z,6.30
2022-11-06T18:56:42.870Z,6.20
2022-11-06T18:59:16.221Z,6.20
2022-11-06T19:01:48.245Z,6.30
2022-11-06T19:04:21.927Z,6.30
2022-11-06T19:06:55.646Z,6.30
2022-11-06T19:09:30.047Z,6.40
2022-11-06T19:12:01.961Z,6.40
2022-11-06T19:14:34.313Z,6.30
2022-11-06T19:17:06.294Z,6.40
2022-11-06T19:19:40.897Z,6.40
2022-11-06T19:22:13.908Z,6.30
2022-11-06T19:24:46.718Z,6.30
2022-11-06T19:27:19.583Z,6.30
2022-11-06T19:29:51.887Z,6.30
2022-11-06T19:32:26.232Z,6.30
2022-11-06T19:34:58.249Z,6.30
2022-11-06T19:37:32.828Z,6.30
2022-11-06T19:40:11.512Z,6.30
2022-11-06T19:42:44.049Z,6.30
2022-11-06T19:45:17.010Z,6.20
2022-11-06T19:47:48.972Z,6.20
2022-11-06T19:50:45.669Z,6.20
2022-11-06T19:53:19.925Z,6.10
2022-11-06T19:55:52.935Z,6.20
2022-11-06T19:58:25.113Z,6.10
2022-11-06T20:00:56.878Z,6.10
2022-11-06T20:03:29.200Z,6.10
2022-11-06T20:06:06.451Z,6.10
2022-11-06T20:08:39.966Z,6.10
2022-11-06T20:11:12.631Z,6.10
2022-11-06T20:13:45.008Z,6.20
2022-11-06T20:16:20.045Z,6.10
2022-11-06T20:18:56.107Z,6.10
2022-11-06T20:21:31.131Z,6.10
2022-11-06T20:24:03.005Z,6.10
2022-11-06T20:26:39.129Z,6.10
2022-11-06T20:29:10.964Z,6.10
2022-11-06T20:31:43.319Z,6.10
2022-11-06T20:34:15.170Z,6.10
2022-11-06T20:36:46.995Z,6.10
2022-11-06T20:39:19.231Z,6.00
2022-11-06T20:41:51.228Z,6.00
2022-11-06T20:44:23.019Z,6.00
2022-11-06T20:46:54.896Z,6.00
2022-11-06T20:49:26.969Z,5.90
2022-11-06T20:52:15.058Z,6.00
2022-11-06T20:54:47.863Z,6.00
2022-11-06T20:57:19.647Z,5.90
2022-11-06T20:59:51.402Z,5.90
2022-11-06T21:02:23.269Z,5.90
2022-11-06T21:04:55.353Z,5.90
2022-11-06T21:07:27.114Z,5.80
2022-11-06T21:09:59.125Z,5.80
2022-11-06T21:12:30.870Z,5.80
2022-11-06T21:15:02.635Z,5.80
2022-11-06T21:17:35.301Z,5.70
2022-11-06T21:20:07.286Z,5.70
2022-11-06T21:22:42.097Z,5.70
2022-11-06T21:25:13.908Z,5.70
2022-11-06T21:27:45.622Z,5.70
2022-11-06T21:30:17.667Z,5.70
2022-11-06T21:32:49.398Z,5.70
2022-11-06T21:35:21.191Z,5.70
2022-11-06T21:37:55.279Z,5.70
2022-11-06T21:40:27.081Z,5.70
2022-11-06T21:42:58.866Z,5.70
2022-11-06T21:45:30.757Z,5.70
2022-11-06T21:48:05.580Z,5.70
2022-11-06T21:50:42.644Z,5.70
2022-11-06T21:53:32.880Z,5.60
2022-11-06T21:56:05.872Z,5.60
2022-11-06T21:58:37.582Z,5.60
2022-11-06T22:01:09.495Z,5.60
2022-11-06T22:03:41.392Z,5.60
2022-11-06T22:06:14.702Z,5.70
2022-11-06T22:08:49.311Z,5.60
2022-11-06T22:11:25.023Z,5.60
2022-11-06T22:13:57.606Z,5.50
2022-11-06T22:16:31.562Z,5.50
2022-11-06T22:19:03.839Z,5.50
2022-11-06T22:21:36.619Z,5.40
2022-11-06T22:24:11.490Z,5.40
2022-11-06T22:26:45.362Z,5.40
2022-11-06T22:29:17.095Z,5.40
2022-11-06T22:31:48.933Z,5.40
2022-11-06T22:34:23.017Z,5.30
2022-11-06T22:36:54.768Z,5.30
2022-11-06T22:39:26.470Z,5.30
2022-11-06T22:41:58.214Z,5.30
2022-11-06T22:44:33.689Z,5.20
2022-11-06T22:47:05.742Z,5.30
2022-11-06T22:49:37.522Z,5.20
2022-11-06T22:52:09.258Z,5.20
2022-11-06T22:54:40.988Z,5.30
2022-11-06T22:57:12.795Z,5.30
2022-11-06T22:59:44.498Z,5.30
2022-11-06T23:02:18.890Z,5.30
2022-11-06T23:04:50.693Z,5.30
2022-11-06T23:07:22.518Z,5.30
2022-11-06T23:09:54.232Z,5.20
2022-11-06T23:12:26.018Z,5.20
2022-11-06T23:14:58.644Z,5.20
2022-11-06T23:17:30.479Z,5.20
2022-11-06T23:20:02.943Z,5.20
2022-11-06T23:22:40.592Z,5.20
2022-11-06T23:25:13.257Z,5.20
2022-11-06T23:27:49.782Z,5.20
2022-11-06T23:30:22.014Z,5.20
2022-11-06T23:32:53.808Z,5.20
2022-11-06T23:35:31.923Z,5.30
2022-11-06T23:38:04.290Z,5.30
2022-11-06T23:40:36.013Z,5.30
2022-11-06T23:43:07.808Z,5.30
2022-11-06T23:45:48.379Z,5.30
2022-11-06T23:48:20.151Z,5.30
2022-11-06T23:50:51.879Z,5.40
2022-11-06T23:53:23.618Z,5.30
2022-11-06T23:55:55.366Z,5.40
2022-11-06T23:58:27.229Z,5.40
